Time;durP1;ratioP1;P1;durP2;ratioP2;P2;SDS_P1;SDS_P2;PMS_P1;PMS_P2;Temp;Humidity;BMP_temperature;BMP_pressure;BME280_temperature;BME280_humidity;BME280_pressure;Samples;Min_cycle;Max_cycle;Signal;HPM_P1;HPM_P2
2021/06/11 00:00:14;;;;;;;9.32;7.80;;;;;;;;;;4990627;28;20034;-76
2021/06/11 00:02:40;;;;;;;9.32;8.02;;;;;;;;;;4992160;28;20040;-73
2021/06/11 00:05:07;;;;;;;13.98;7.93;;;;;;;;;;4991755;28;20030;-73
2021/06/11 00:07:33;;;;;;;9.60;7.45;;;;;;;;;;4991324;28;20030;-73
2021/06/11 00:09:59;;;;;;;8.43;7.18;;;;;;;;;;4990592;28;20157;-73
2021/06/11 00:12:25;;;;;;;8.40;7.00;;;;;;;;;;4991860;28;20037;-73
2021/06/11 00:14:50;;;;;;;8.05;7.20;;;;;;;;;;4990424;28;20034;-73
2021/06/11 00:17:16;;;;;;;10.77;7.80;;;;;;;;;;4991318;28;20535;-73
2021/06/11 00:19:41;;;;;;;8.93;7.57;;;;;;;;;;4991078;28;20046;-74
2021/06/11 00:22:07;;;;;;;8.48;7.10;;;;;;;;;;4990524;28;20129;-74
2021/06/11 00:24:32;;;;;;;9.30;7.38;;;;;;;;;;4991149;28;20045;-75
2021/06/11 00:26:58;;;;;;;9.52;6.97;;;;;;;;;;4989856;28;20119;-73
2021/06/11 00:29:24;;;;;;;8.82;7.40;;;;;;;;;;4989627;28;20026;-73
2021/06/11 00:31:50;;;;;;;13.45;8.15;;;;;;;;;;5005993;28;20026;-74
2021/06/11 00:34:15;;;;;;;8.90;7.00;;;;;;;;;;4990778;28;20037;-73
2021/06/11 00:36:41;;;;;;;11.57;7.90;;;;;;;;;;4989938;28;20040;-74
2021/06/11 00:39:06;;;;;;;10.40;7.55;;;;;;;;;;4990921;28;20161;-73
2021/06/11 00:41:32;;;;;;;11.88;6.90;;;;;;;;;;4989295;28;20058;-74
2021/06/11 00:43:58;;;;;;;11.20;7.15;;;;;;;;;;4991350;28;20080;-73
2021/06/11 00:46:24;;;;;;;12.05;8.05;;;;;;;;;;4989289;28;20088;-74
2021/06/11 00:48:49;;;;;;;12.45;7.85;;;;;;;;;;4989710;28;20088;-74
2021/06/11 00:51:15;;;;;;;8.10;6.90;;;;;;;;;;4989108;28;20061;-74
2021/06/11 00:53:41;;;;;;;9.88;7.22;;;;;;;;;;4988746;28;20031;-74
2021/06/11 00:56:07;;;;;;;11.82;7.57;;;;;;;;;;4989484;28;20026;-74
2021/06/11 00:58:32;;;;;;;9.65;7.97;;;;;;;;;;4990846;28;20041;-74
2021/06/11 01:00:58;;;;;;;8.50;7.15;;;;;;;;;;4989354;28;20037;-75
2021/06/11 01:03:24;;;;;;;8.98;7.07;;;;;;;;;;4990762;28;20038;-74
2021/06/11 01:05:49;;;;;;;9.10;7.60;;;;;;;;;;4990088;28;20475;-74
2021/06/11 01:08:17;;;;;;;10.13;7.82;;;;;;;;;;4989403;28;20124;-73
2021/06/11 01:10:44;;;;;;;13.70;7.80;;;;;;;;;;4989292;28;20030;-74
2021/06/11 01:13:12;;;;;;;9.85;7.82;;;;;;;;;;4989033;28;20041;-74
2021/06/11 01:15:38;;;;;;;11.27;8.05;;;;;;;;;;4990716;28;20038;-73
2021/06/11 01:18:04;;;;;;;9.77;7.97;;;;;;;;;;4990494;28;20034;-73
2021/06/11 01:20:30;;;;;;;10.15;7.72;;;;;;;;;;4990433;28;20026;-74
2021/06/11 01:23:08;;;;;;;11.10;8.13;;;;;;;;;;4989097;28;20026;-73
2021/06/11 01:26:07;;;;;;;12.02;7.18;;;;;;;;;;4990016;28;20076;-75
2021/06/11 01:28:34;;;;;;;11.25;8.48;;;;;;;;;;4999847;28;20541;-74
2021/06/11 01:31:00;;;;;;;7.85;6.80;;;;;;;;;;4989201;28;20026;-73
2021/06/11 01:33:30;;;;;;;10.88;7.85;;;;;;;;;;4988890;28;20038;-74
2021/06/11 01:36:02;;;;;;;8.90;7.72;;;;;;;;;;4990073;28;20087;-73
2021/06/11 01:38:31;;;;;;;;;;;;;;;;;;4989113;28;20119;-73
2021/06/11 01:40:58;;;;;;;12.38;7.43;;;;;;;;;;4988854;28;19913;-74
2021/06/11 01:43:26;;;;;;;9.65;7.93;;;;;;;;;;4990664;28;20102;-73
2021/06/11 01:45:51;;;;;;;13.65;7.70;;;;;;;;;;4989906;28;20085;-73
2021/06/11 01:48:17;;;;;;;10.70;8.27;;;;;;;;;;4990261;28;20100;-73
2021/06/11 01:50:44;;;;;;;9.77;8.38;;;;;;;;;;4989541;28;20494;-74
2021/06/11 01:53:12;;;;;;;10.55;7.68;;;;;;;;;;4990207;28;20109;-73
2021/06/11 01:55:39;;;;;;;10.60;8.20;;;;;;;;;;4988510;28;20038;-73
2021/06/11 01:58:07;;;;;;;9.63;7.63;;;;;;;;;;4988451;28;20427;-73
2021/06/11 02:00:33;;;;;;;11.13;9.15;;;;;;;;;;4972259;28;20035;-74
2021/06/11 02:03:00;;;;;;;14.90;8.68;;;;;;;;;;4988375;28;20411;-75
2021/06/11 02:05:25;;;;;;;11.13;7.82;;;;;;;;;;4989939;28;20056;-73
2021/06/11 02:07:51;;;;;;;9.10;8.13;;;;;;;;;;4992370;28;20394;-74
2021/06/11 02:10:19;;;;;;;12.02;7.90;;;;;;;;;;4993441;28;20109;-76
2021/06/11 02:12:45;;;;;;;13.40;7.85;;;;;;;;;;4993848;28;20038;-73
2021/06/11 02:15:12;;;;;;;11.95;7.97;;;;;;;;;;4993875;28;20335;-73
2021/06/11 02:17:41;;;;;;;10.27;8.80;;;;;;;;;;4993820;28;20529;-73
2021/06/11 02:20:10;;;;;;;9.93;7.95;;;;;;;;;;4992224;28;20038;-73
2021/06/11 02:22:42;;;;;;;14.32;8.75;;;;;;;;;;4991757;28;20034;-74
2021/06/11 02:25:09;;;;;;;13.80;8.90;;;;;;;;;;4993264;28;20023;-74
2021/06/11 02:27:37;;;;;;;12.48;7.97;;;;;;;;;;4991556;28;20429;-74
2021/06/11 02:30:06;;;;;;;11.43;8.60;;;;;;;;;;4991623;28;20037;-72
2021/06/11 02:32:34;;;;;;;10.68;7.50;;;;;;;;;;4991847;28;20088;-72
2021/06/11 02:35:07;;;;;;;9.90;7.88;;;;;;;;;;4993361;28;20427;-73
2021/06/11 02:37:36;;;;;;;12.07;8.23;;;;;;;;;;4991758;28;20034;-74
2021/06/11 02:40:05;;;;;;;10.82;7.80;;;;;;;;;;4991903;28;20561;-74
2021/06/11 02:42:31;;;;;;;10.13;7.47;;;;;;;;;;4991665;28;20034;-74
2021/06/11 02:45:03;;;;;;;8.52;7.50;;;;;;;;;;4992040;28;20500;-73
2021/06/11 02:47:38;;;;;;;9.07;7.93;;;;;;;;;;4975427;28;20081;-74
2021/06/11 02:50:09;;;;;;;10.07;8.05;;;;;;;;;;4991774;28;20026;-73
2021/06/11 02:52:40;;;;;;;10.25;8.48;;;;;;;;;;4991324;28;20180;-74
2021/06/11 02:55:07;;;;;;;9.82;7.47;;;;;;;;;;4993158;28;20026;-72
2021/06/11 02:57:53;;;;;;;12.32;7.95;;;;;;;;;;4992491;28;20026;-73
2021/06/11 03:00:20;;;;;;;12.30;8.40;;;;;;;;;;4990803;28;20569;-72
2021/06/11 03:02:53;;;;;;;9.38;7.80;;;;;;;;;;4993095;28;20026;-73
2021/06/11 03:05:21;;;;;;;10.90;7.45;;;;;;;;;;4991240;28;20031;-74
2021/06/11 03:07:52;;;;;;;10.88;7.72;;;;;;;;;;4992983;28;20077;-73
2021/06/11 03:10:21;;;;;;;13.55;7.90;;;;;;;;;;4991418;28;20083;-73
2021/06/11 03:12:48;;;;;;;13.07;8.25;;;;;;;;;;4991362;28;20096;-74
2021/06/11 03:15:14;;;;;;;13.77;8.07;;;;;;;;;;4992364;28;20087;-74
2021/06/11 03:17:45;;;;;;;10.15;7.75;;;;;;;;;;4990320;28;20117;-74
2021/06/11 03:20:17;;;;;;;14.82;7.97;;;;;;;;;;4991108;28;20033;-74
2021/06/11 03:22:55;;;;;;;10.43;7.50;;;;;;;;;;4990919;28;20041;-73
2021/06/11 03:25:28;;;;;;;10.32;8.77;;;;;;;;;;4992163;28;20030;-74
2021/06/11 03:28:01;;;;;;;13.15;8.10;;;;;;;;;;4992444;28;20101;-74
2021/06/11 03:30:28;;;;;;;14.02;8.23;;;;;;;;;;5007188;28;20026;-74
2021/06/11 03:33:11;;;;;;;14.02;8.45;;;;;;;;;;4992217;28;20030;-75
2021/06/11 03:35:42;;;;;;;12.60;8.48;;;;;;;;;;4992606;28;20839;-75
2021/06/11 03:38:09;;;;;;;;;;;;;;;;;;4991610;28;20116;-75
2021/06/11 03:40:39;;;;;;;9.32;7.60;;;;;;;;;;4990434;28;20146;-75
2021/06/11 03:43:08;;;;;;;8.85;6.85;;;;;;;;;;4990866;28;20229;-73
2021/06/11 03:45:35;;;;;;;9.38;7.95;;;;;;;;;;4974050;28;20038;-75
2021/06/11 03:48:01;;;;;;;10.02;8.07;;;;;;;;;;4990997;28;20031;-74
2021/06/11 03:50:29;;;;;;;8.32;7.18;;;;;;;;;;4990544;28;20026;-74
2021/06/11 03:52:58;;;;;;;11.77;7.60;;;;;;;;;;4990762;28;20034;-73
2021/06/11 03:55:30;;;;;;;9.30;7.72;;;;;;;;;;4990372;28;20113;-73
2021/06/11 03:58:05;;;;;;;12.40;7.88;;;;;;;;;;4990659;28;20503;-74
2021/06/11 04:00:32;;;;;;;11.20;7.40;;;;;;;;;;4991427;28;20054;-74
2021/06/11 04:02:59;;;;;;;14.35;7.97;;;;;;;;;;4990592;28;20031;-74
2021/06/11 04:05:24;;;;;;;13.35;8.32;;;;;;;;;;4973596;28;20389;-74
2021/06/11 04:07:55;;;;;;;10.38;8.27;;;;;;;;;;4990430;28;20034;-74
2021/06/11 04:10:35;;;;;;;15.93;9.05;;;;;;;;;;4992002;28;20042;-74
2021/06/11 04:13:08;;;;;;;11.95;8.15;;;;;;;;;;4990733;28;20034;-73
2021/06/11 04:15:37;;;;;;;11.43;8.50;;;;;;;;;;4989927;28;20045;-74
2021/06/11 04:18:09;;;;;;;19.25;8.95;;;;;;;;;;4990235;28;20053;-74
2021/06/11 04:20:34;;;;;;;10.52;7.72;;;;;;;;;;4989881;28;20096;-74
2021/06/11 04:23:03;;;;;;;11.90;7.75;;;;;;;;;;4989882;28;20482;-73
2021/06/11 04:25:32;;;;;;;9.18;7.30;;;;;;;;;;4989515;28;20083;-74
2021/06/11 04:27:59;;;;;;;10.02;8.05;;;;;;;;;;4990728;28;20026;-74
2021/06/11 04:30:26;;;;;;;12.13;7.97;;;;;;;;;;4990735;28;20018;-75
2021/06/11 04:32:52;;;;;;;11.45;7.93;;;;;;;;;;4973703;28;20046;-74
2021/06/11 04:35:23;;;;;;;12.35;7.35;;;;;;;;;;4991096;28;20065;-74
2021/06/11 04:37:48;;;;;;;11.25;8.02;;;;;;;;;;4991036;28;20026;-73
2021/06/11 04:40:15;;;;;;;11.85;8.00;;;;;;;;;;4991151;28;20022;-73
2021/06/11 04:42:40;;;;;;;10.35;8.05;;;;;;;;;;4991011;28;20038;-75
2021/06/11 04:45:07;;;;;;;14.38;8.30;;;;;;;;;;4991519;28;20038;-75
2021/06/11 04:47:33;;;;;;;12.57;8.35;;;;;;;;;;4990573;28;20572;-72
2021/06/11 04:49:59;;;;;;;14.00;7.95;;;;;;;;;;4991248;28;20022;-74
2021/06/11 04:52:25;;;;;;;10.80;7.32;;;;;;;;;;4987392;28;20780;-74
2021/06/11 04:54:51;;;;;;;11.85;7.90;;;;;;;;;;5003526;28;20449;-74
2021/06/11 04:57:18;;;;;;;8.70;7.10;;;;;;;;;;5005571;28;20527;-75
2021/06/11 04:59:44;;;;;;;9.57;7.43;;;;;;;;;;5007892;28;20026;-74
2021/06/11 05:02:10;;;;;;;15.40;7.47;;;;;;;;;;5001764;28;20139;-76
2021/06/11 05:04:35;;;;;;;9.20;7.28;;;;;;;;;;4988362;28;20486;-74
2021/06/11 05:07:01;;;;;;;12.60;7.57;;;;;;;;;;5004654;28;20026;-76
2021/06/11 05:09:27;;;;;;;9.82;7.05;;;;;;;;;;4990067;28;20030;-76
2021/06/11 05:11:53;;;;;;;10.80;8.35;;;;;;;;;;5009597;28;20175;-75
2021/06/11 05:14:19;;;;;;;13.07;7.57;;;;;;;;;;5010073;28;20029;-75
2021/06/11 05:16:44;;;;;;;11.05;7.13;;;;;;;;;;5007947;28;20076;-74
2021/06/11 05:19:10;;;;;;;11.75;7.25;;;;;;;;;;5010348;28;20404;-75
2021/06/11 05:21:36;;;;;;;10.35;7.53;;;;;;;;;;5007443;28;20029;-77
2021/06/11 05:24:03;;;;;;;10.18;6.95;;;;;;;;;;5009078;28;20405;-75
2021/06/11 05:26:28;;;;;;;12.82;7.95;;;;;;;;;;5010031;28;20025;-75
2021/06/11 05:28:55;;;;;;;9.95;7.47;;;;;;;;;;5010271;28;20028;-75
2021/06/11 05:31:21;;;;;;;8.88;6.85;;;;;;;;;;5008331;28;20041;-74
2021/06/11 05:33:47;;;;;;;9.07;7.45;;;;;;;;;;5008347;28;20030;-75
2021/06/11 05:36:13;;;;;;;14.02;8.38;;;;;;;;;;4997526;28;20077;-74
2021/06/11 05:38:38;;;;;;;8.93;8.02;;;;;;;;;;4984482;28;20031;-76
2021/06/11 05:41:04;;;;;;;13.60;8.00;;;;;;;;;;5003531;28;20471;-76
2021/06/11 05:43:30;;;;;;;9.85;8.50;;;;;;;;;;5007807;28;20044;-75
2021/06/11 05:45:56;;;;;;;11.63;7.82;;;;;;;;;;4996549;28;20081;-74
2021/06/11 05:48:23;;;;;;;13.98;7.88;;;;;;;;;;4998040;28;20057;-75
2021/06/11 05:50:48;;;;;;;10.18;7.63;;;;;;;;;;5008214;28;20026;-74
2021/06/11 05:53:21;;;;;;;10.02;7.82;;;;;;;;;;5008211;28;20602;-74
2021/06/11 05:55:47;;;;;;;9.25;7.53;;;;;;;;;;5007954;28;20486;-74
2021/06/11 05:58:13;;;;;;;12.68;7.15;;;;;;;;;;5009463;28;20541;-74
2021/06/11 06:00:41;;;;;;;13.35;7.63;;;;;;;;;;5007799;28;20022;-75
2021/06/11 06:03:07;;;;;;;14.60;6.93;;;;;;;;;;5008271;28;20080;-73
2021/06/11 06:05:34;;;;;;;14.73;7.90;;;;;;;;;;5006031;28;20021;-76
2021/06/11 06:08:00;;;;;;;10.55;7.07;;;;;;;;;;5009982;28;20033;-74
2021/06/11 06:10:26;;;;;;;13.38;7.85;;;;;;;;;;5008081;28;20029;-74
2021/06/11 06:12:51;;;;;;;11.48;7.43;;;;;;;;;;5009176;28;20500;-72
2021/06/11 06:15:17;;;;;;;12.90;8.00;;;;;;;;;;5007178;28;20125;-74
2021/06/11 06:17:43;;;;;;;13.75;8.20;;;;;;;;;;4976093;28;20105;-75
2021/06/11 06:20:11;;;;;;;11.20;7.13;;;;;;;;;;4983737;28;20459;-75
2021/06/11 06:22:36;;;;;;;10.50;7.57;;;;;;;;;;5000800;28;20022;-74
2021/06/11 06:25:04;;;;;;;16.60;7.25;;;;;;;;;;5007592;28;20034;-76
2021/06/11 06:27:29;;;;;;;15.15;7.82;;;;;;;;;;5008771;28;20038;-75
2021/06/11 06:29:55;;;;;;;9.15;7.03;;;;;;;;;;5003224;28;20019;-74
2021/06/11 06:32:21;;;;;;;11.88;7.30;;;;;;;;;;4959899;28;20530;-73
2021/06/11 06:34:47;;;;;;;16.60;8.65;;;;;;;;;;4978316;28;20033;-74
2021/06/11 06:37:14;;;;;;;9.52;7.57;;;;;;;;;;4985893;28;20030;-75
2021/06/11 06:39:40;;;;;;;9.82;7.82;;;;;;;;;;5006474;28;20501;-75
2021/06/11 06:42:06;;;;;;;10.75;8.18;;;;;;;;;;5008321;28;20032;-74
2021/06/11 06:44:33;;;;;;;16.20;11.32;;;;;;;;;;5006534;28;20495;-74
2021/06/11 06:46:58;;;;;;;12.32;7.70;;;;;;;;;;5007337;28;20046;-76
2021/06/11 06:49:24;;;;;;;12.35;7.30;;;;;;;;;;5006638;28;20042;-76
2021/06/11 06:51:50;;;;;;;13.07;8.10;;;;;;;;;;5007800;28;20026;-74
2021/06/11 06:54:16;;;;;;;9.25;7.50;;;;;;;;;;4995807;28;20082;-74
2021/06/11 06:56:42;;;;;;;11.35;7.43;;;;;;;;;;4974670;28;20037;-73
2021/06/11 06:59:08;;;;;;;10.05;7.78;;;;;;;;;;4986479;28;20380;-75
2021/06/11 07:01:34;;;;;;;10.25;7.40;;;;;;;;;;4962867;28;20104;-73
2021/06/11 07:04:01;;;;;;;12.13;7.30;;;;;;;;;;4988427;28;20034;-74
2021/06/11 07:06:28;;;;;;;12.68;7.60;;;;;;;;;;4979565;28;20041;-75
2021/06/11 07:08:54;;;;;;;8.65;7.13;;;;;;;;;;4989140;28;20030;-74
2021/06/11 07:11:20;;;;;;;14.60;8.55;;;;;;;;;;4967528;28;20031;-76
2021/06/11 07:13:47;;;;;;;11.90;7.57;;;;;;;;;;4984482;28;20026;-75
2021/06/11 07:16:13;;;;;;;8.90;7.32;;;;;;;;;;4985777;28;20033;-76
2021/06/11 07:18:40;;;;;;;12.90;8.07;;;;;;;;;;4980757;28;20026;-76
2021/06/11 07:21:07;;;;;;;10.30;7.22;;;;;;;;;;4978909;28;20027;-76
2021/06/11 07:23:35;;;;;;;12.30;7.05;;;;;;;;;;4985240;28;20034;-75
2021/06/11 07:26:05;;;;;;;13.55;7.55;;;;;;;;;;4970071;28;20034;-75
2021/06/11 07:28:33;;;;;;;13.43;7.90;;;;;;;;;;4988389;28;20041;-74
2021/06/11 07:31:00;;;;;;;11.27;9.02;;;;;;;;;;4985171;28;20026;-75
2021/06/11 07:33:25;;;;;;;12.20;7.50;;;;;;;;;;4985737;28;20641;-74
2021/06/11 07:35:51;;;;;;;11.85;7.20;;;;;;;;;;4985143;28;20018;-75
2021/06/11 07:38:16;;;;;;;15.05;8.18;;;;;;;;;;4986628;28;20026;-77
2021/06/11 07:40:44;;;;;;;14.20;8.25;;;;;;;;;;4984151;28;20068;-73
2021/06/11 07:43:10;;;;;;;12.07;7.97;;;;;;;;;;5002172;28;20034;-76
2021/06/11 07:45:35;;;;;;;17.70;7.43;;;;;;;;;;4984174;28;20481;-74
2021/06/11 07:48:01;;;;;;;13.00;8.35;;;;;;;;;;4981453;28;20164;-74
2021/06/11 07:50:28;;;;;;;12.98;8.70;;;;;;;;;;4985115;28;20037;-75
2021/06/11 07:52:55;;;;;;;18.70;9.23;;;;;;;;;;4982838;28;20624;-76
2021/06/11 07:55:20;;;;;;;12.43;8.73;;;;;;;;;;4984911;28;20026;-74
2021/06/11 07:57:46;;;;;;;18.50;8.40;;;;;;;;;;4986325;28;20030;-75
2021/06/11 08:00:12;;;;;;;12.68;8.18;;;;;;;;;;4990098;28;20035;-74
2021/06/11 08:02:40;;;;;;;9.95;7.88;;;;;;;;;;4986585;28;20450;-76
2021/06/11 08:05:06;;;;;;;14.88;9.77;;;;;;;;;;4983871;28;20169;-75
2021/06/11 08:07:32;;;;;;;12.60;8.90;;;;;;;;;;4986860;28;21176;-77
2021/06/11 08:09:58;;;;;;;14.00;8.07;;;;;;;;;;4984644;28;20612;-75
2021/06/11 08:12:29;;;;;;;10.23;7.70;;;;;;;;;;4983913;28;20117;-75
2021/06/11 08:14:54;;;;;;;16.55;8.63;;;;;;;;;;4982411;28;20477;-76
2021/06/11 08:17:20;;;;;;;13.82;8.90;;;;;;;;;;4983724;28;20057;-73
2021/06/11 08:19:46;;;;;;;12.15;7.50;;;;;;;;;;4985570;28;20028;-76
2021/06/11 08:22:11;;;;;;;11.95;8.70;;;;;;;;;;4984099;28;20422;-75
2021/06/11 08:24:37;;;;;;;13.73;8.70;;;;;;;;;;4982688;28;20606;-76
2021/06/11 08:27:03;;;;;;;11.30;8.27;;;;;;;;;;4981543;28;20052;-73
2021/06/11 08:29:29;;;;;;;12.90;8.95;;;;;;;;;;4980363;28;20037;-77
2021/06/11 08:31:54;;;;;;;11.07;8.60;;;;;;;;;;4982946;28;20045;-75
2021/06/11 08:34:20;;;;;;;11.93;8.27;;;;;;;;;;4980424;28;20058;-74
2021/06/11 08:36:47;;;;;;;15.38;9.40;;;;;;;;;;4980470;28;20026;-76
2021/06/11 08:39:13;;;;;;;13.38;8.88;;;;;;;;;;4982615;28;20036;-76
2021/06/11 08:41:38;;;;;;;13.48;9.65;;;;;;;;;;4984003;28;20030;-76
2021/06/11 08:44:06;;;;;;;15.50;8.63;;;;;;;;;;4983875;28;20041;-75
2021/06/11 08:46:32;;;;;;;10.20;8.15;;;;;;;;;;4981276;28;20054;-76
2021/06/11 08:49:01;;;;;;;14.27;9.70;;;;;;;;;;4986426;28;20113;-74
2021/06/11 08:51:28;;;;;;;13.80;9.98;;;;;;;;;;4983859;28;20030;-74
2021/06/11 08:53:55;;;;;;;12.88;10.40;;;;;;;;;;4972504;28;21228;-74
2021/06/11 08:56:20;;;;;;;12.43;10.35;;;;;;;;;;4975776;28;20030;-75
2021/06/11 08:58:49;;;;;;;19.92;11.30;;;;;;;;;;4982630;28;20030;-74
2021/06/11 09:01:14;;;;;;;17.77;10.05;;;;;;;;;;4965573;28;20138;-77
2021/06/11 09:03:45;;;;;;;14.35;9.57;;;;;;;;;;4979015;28;20027;-76
2021/06/11 09:06:14;;;;;;;16.30;9.00;;;;;;;;;;4978072;28;20072;-76
2021/06/11 09:08:55;;;;;;;12.15;8.82;;;;;;;;;;4977343;28;20062;-75
2021/06/11 09:11:23;;;;;;;15.30;9.52;;;;;;;;;;4978510;28;20370;-75
2021/06/11 09:13:54;;;;;;;12.43;9.63;;;;;;;;;;4978533;28;20026;-77
2021/06/11 09:16:25;;;;;;;18.30;10.55;;;;;;;;;;4963679;28;20039;-76
2021/06/11 09:18:51;;;;;;;17.00;9.50;;;;;;;;;;4982310;28;20073;-75
2021/06/11 09:21:28;;;;;;;12.32;9.50;;;;;;;;;;4980200;28;20035;-75
2021/06/11 09:24:24;;;;;;;11.02;8.88;;;;;;;;;;4981728;28;20041;-75
2021/06/11 09:26:56;;;;;;;13.85;9.60;;;;;;;;;;4981116;28;20031;-74
2021/06/11 09:29:32;;;;;;;17.38;10.70;;;;;;;;;;4981266;28;20110;-77
2021/06/11 09:32:27;;;;;;;11.23;9.02;;;;;;;;;;4981301;28;20742;-75
2021/06/11 09:34:58;;;;;;;18.75;9.75;;;;;;;;;;4979492;28;20564;-75
2021/06/11 09:37:33;;;;;;;12.95;9.05;;;;;;;;;;4981404;28;20037;-75
2021/06/11 09:40:07;;;;;;;10.52;9.07;;;;;;;;;;4982486;28;20793;-76
2021/06/11 09:42:35;;;;;;;12.70;8.98;;;;;;;;;;4985075;28;20034;-76
2021/06/11 09:45:06;;;;;;;15.60;9.45;;;;;;;;;;4982074;28;20165;-74
2021/06/11 09:47:49;;;;;;;16.42;9.00;;;;;;;;;;4981260;28;20058;-74
2021/06/11 09:50:20;;;;;;;16.83;8.95;;;;;;;;;;4994889;28;20026;-75
2021/06/11 09:53:01;;;;;;;12.55;9.25;;;;;;;;;;4978682;28;20042;-76
2021/06/11 09:55:30;;;;;;;;;;;;;;;;;;4979980;28;20034;-76
2021/06/11 09:58:23;;;;;;;14.30;8.95;;;;;;;;;;4981805;28;20007;-75
2021/06/11 10:00:56;;;;;;;14.38;12.35;;;;;;;;;;4982545;28;20050;-76
2021/06/11 10:03:27;;;;;;;11.82;9.05;;;;;;;;;;4979748;28;20086;-78
2021/06/11 10:05:55;;;;;;;14.88;9.98;;;;;;;;;;4983465;28;20042;-74
2021/06/11 10:08:21;;;;;;;11.32;10.13;;;;;;;;;;4981965;28;20061;-74
2021/06/11 10:10:49;;;;;;;11.10;9.20;;;;;;;;;;4982982;28;20042;-75
2021/06/11 10:13:16;;;;;;;11.02;9.52;;;;;;;;;;4984072;28;20034;-76
2021/06/11 10:15:43;;;;;;;15.10;10.85;;;;;;;;;;4983846;28;20117;-75
2021/06/11 10:18:10;;;;;;;13.40;9.82;;;;;;;;;;4982713;28;20129;-77
2021/06/11 10:20:36;;;;;;;13.93;9.48;;;;;;;;;;4981808;28;20807;-75
2021/06/11 10:23:04;;;;;;;12.98;10.20;;;;;;;;;;4986278;28;20108;-75
2021/06/11 10:25:30;;;;;;;21.48;10.57;;;;;;;;;;4982233;28;20042;-76
2021/06/11 10:27:57;;;;;;;11.02;9.68;;;;;;;;;;4984798;28;20042;-75
2021/06/11 10:30:25;;;;;;;14.50;10.50;;;;;;;;;;4986997;28;20141;-76
2021/06/11 10:32:51;;;;;;;16.00;9.65;;;;;;;;;;4985800;28;20030;-75
2021/06/11 10:35:39;;;;;;;15.77;9.57;;;;;;;;;;4985668;28;20034;-76
2021/06/11 10:38:09;;;;;;;18.83;15.70;;;;;;;;;;4987340;28;20465;-76
2021/06/11 10:40:40;;;;;;;12.98;10.45;;;;;;;;;;4985883;28;20085;-74
2021/06/11 10:43:25;;;;;;;;;;;;;;;;;;5003113;28;20034;-75
2021/06/11 10:45:56;;;;;;;13.38;9.45;;;;;;;;;;4986471;28;19945;-74
2021/06/11 10:48:22;;;;;;;14.75;11.00;;;;;;;;;;4985627;28;20026;-78
2021/06/11 10:50:49;;;;;;;10.15;9.13;;;;;;;;;;4975164;28;20088;-75
2021/06/11 10:53:28;;;;;;;14.93;8.77;;;;;;;;;;4987113;28;20026;-76
2021/06/11 10:56:13;;;;;;;12.55;8.63;;;;;;;;;;4985158;28;20042;-76
2021/06/11 10:58:40;;;;;;;10.43;8.90;;;;;;;;;;4986027;28;20038;-74
2021/06/11 11:01:27;;;;;;;10.20;9.00;;;;;;;;;;4984291;28;20037;-76
2021/06/11 11:03:54;;;;;;;10.23;9.15;;;;;;;;;;4985329;28;20026;-75
2021/06/11 11:06:36;;;;;;;12.82;8.77;;;;;;;;;;4983859;28;20056;-75
2021/06/11 11:09:04;;;;;;;13.32;9.98;;;;;;;;;;4998265;28;20084;-74
2021/06/11 11:11:36;;;;;;;11.30;9.10;;;;;;;;;;4983819;28;20037;-75
2021/06/11 11:14:04;;;;;;;10.23;8.65;;;;;;;;;;4986363;28;20450;-77
2021/06/11 11:16:34;;;;;;;25.02;10.77;;;;;;;;;;4985193;28;20034;-76
2021/06/11 11:19:02;;;;;;;10.55;9.23;;;;;;;;;;4987638;28;20026;-75
2021/06/11 11:21:38;;;;;;;17.17;9.68;;;;;;;;;;4989453;28;20440;-76
2021/06/11 11:24:07;;;;;;;11.43;9.88;;;;;;;;;;4984273;28;20049;-78
2021/06/11 11:26:40;;;;;;;10.30;8.63;;;;;;;;;;4972694;28;20045;-77
2021/06/11 11:29:06;;;;;;;13.48;10.88;;;;;;;;;;4981887;28;20030;-77
2021/06/11 11:31:31;;;;;;;12.27;9.73;;;;;;;;;;4980847;28;20030;-75
2021/06/11 11:33:57;;;;;;;11.05;9.05;;;;;;;;;;4977097;28;20033;-75
2021/06/11 11:36:23;;;;;;;9.95;8.95;;;;;;;;;;4985947;28;20034;-76
2021/06/11 11:38:50;;;;;;;10.57;8.85;;;;;;;;;;4982227;28;20033;-75
2021/06/11 11:41:16;;;;;;;10.80;8.90;;;;;;;;;;4976071;28;20051;-76
2021/06/11 11:43:42;;;;;;;10.05;9.05;;;;;;;;;;4983841;28;20047;-76
2021/06/11 11:46:07;;;;;;;11.55;7.57;;;;;;;;;;4981369;28;20069;-75
2021/06/11 11:48:33;;;;;;;10.70;7.55;;;;;;;;;;4988565;28;20038;-76
2021/06/11 11:50:59;;;;;;;11.85;8.07;;;;;;;;;;4969730;28;20517;-74
2021/06/11 11:53:25;;;;;;;7.72;7.03;;;;;;;;;;4981637;28;20061;-76
2021/06/11 11:55:51;;;;;;;7.28;6.57;;;;;;;;;;4980900;28;20034;-76
2021/06/11 11:58:16;;;;;;;7.40;6.70;;;;;;;;;;4982491;28;20038;-74
2021/06/11 12:00:42;;;;;;;8.05;7.15;;;;;;;;;;4977109;28;20559;-76
2021/06/11 12:03:08;;;;;;;10.48;7.47;;;;;;;;;;4979136;28;20471;-76
2021/06/11 12:05:33;;;;;;;7.63;6.93;;;;;;;;;;4979838;28;20030;-80
2021/06/11 12:07:59;;;;;;;10.38;7.45;;;;;;;;;;4983769;28;20056;-75
2021/06/11 12:10:26;;;;;;;12.52;7.68;;;;;;;;;;4983479;28;20039;-76
2021/06/11 12:12:57;;;;;;;8.07;6.28;;;;;;;;;;5002194;28;20026;-76
2021/06/11 12:15:22;;;;;;;10.35;8.25;;;;;;;;;;4982990;28;20030;-75
2021/06/11 12:17:48;;;;;;;10.05;6.80;;;;;;;;;;4985305;28;20212;-75
2021/06/11 12:20:14;;;;;;;8.32;7.32;;;;;;;;;;4982118;28;20074;-77
2021/06/11 12:22:40;;;;;;;10.10;7.20;;;;;;;;;;4982130;28;20108;-75
2021/06/11 12:25:06;;;;;;;10.57;8.77;;;;;;;;;;4988405;28;20103;-76
2021/06/11 12:27:32;;;;;;;9.40;8.35;;;;;;;;;;4987971;28;20037;-77
2021/06/11 12:30:00;;;;;;;10.23;8.10;;;;;;;;;;4986378;28;20026;-75
2021/06/11 12:32:26;;;;;;;9.15;7.57;;;;;;;;;;4987043;28;20041;-75
2021/06/11 12:34:51;;;;;;;13.57;7.68;;;;;;;;;;4980690;28;20035;-75
2021/06/11 12:37:17;;;;;;;9.02;8.07;;;;;;;;;;4982862;28;20035;-75
2021/06/11 12:39:43;;;;;;;9.02;8.13;;;;;;;;;;4981484;28;20042;-76
2021/06/11 12:42:17;;;;;;;10.43;8.45;;;;;;;;;;4984030;28;20045;-75
2021/06/11 12:44:43;;;;;;;8.75;7.85;;;;;;;;;;4982600;28;20089;-76
2021/06/11 12:47:13;;;;;;;11.93;9.70;;;;;;;;;;4982432;28;20406;-78
2021/06/11 12:49:41;;;;;;;8.48;7.53;;;;;;;;;;4982054;28;20049;-75
2021/06/11 12:52:09;;;;;;;10.48;8.05;;;;;;;;;;4962512;28;20034;-77
2021/06/11 12:54:34;;;;;;;15.40;7.25;;;;;;;;;;4979100;28;20474;-74
2021/06/11 12:57:01;;;;;;;9.52;7.05;;;;;;;;;;4978474;28;20038;-78
2021/06/11 12:59:26;;;;;;;13.80;7.68;;;;;;;;;;4985188;28;20815;-77
2021/06/11 13:01:52;;;;;;;11.50;9.13;;;;;;;;;;4985468;28;20029;-75
2021/06/11 13:04:18;;;;;;;12.70;9.63;;;;;;;;;;4985453;28;20109;-76
2021/06/11 13:06:44;;;;;;;14.48;10.60;;;;;;;;;;4980969;28;20036;-77
2021/06/11 13:09:09;;;;;;;14.85;10.23;;;;;;;;;;4983921;28;20034;-76
2021/06/11 13:11:38;;;;;;;11.57;9.93;;;;;;;;;;4994047;28;20112;-76
2021/06/11 13:14:04;;;;;;;14.27;11.23;;;;;;;;;;4981207;28;20160;-75
2021/06/11 13:16:29;;;;;;;12.07;10.35;;;;;;;;;;4980507;28;20077;-75
2021/06/11 13:18:55;;;;;;;9.35;8.35;;;;;;;;;;4983174;28;20121;-74
2021/06/11 13:21:21;;;;;;;24.83;10.48;;;;;;;;;;4980952;28;20027;-76
2021/06/11 13:23:49;;;;;;;10.52;7.28;;;;;;;;;;4981640;28;20041;-77
2021/06/11 13:26:14;;;;;;;19.55;10.30;;;;;;;;;;4980610;28;20026;-76
2021/06/11 13:28:40;;;;;;;7.75;6.72;;;;;;;;;;4980776;28;20484;-74
2021/06/11 13:31:06;;;;;;;11.30;6.25;;;;;;;;;;4983176;28;20045;-77
2021/06/11 13:33:31;;;;;;;6.28;5.72;;;;;;;;;;4984340;28;20113;-75
2021/06/11 13:35:58;;;;;;;9.15;7.55;;;;;;;;;;4981381;28;20034;-75
2021/06/11 13:38:24;;;;;;;12.93;7.13;;;;;;;;;;4981268;28;20420;-74
2021/06/11 13:40:49;;;;;;;16.65;7.45;;;;;;;;;;4983823;28;20118;-75
2021/06/11 13:43:15;;;;;;;8.77;6.75;;;;;;;;;;4984140;28;20081;-75
2021/06/11 13:45:41;;;;;;;7.25;6.55;;;;;;;;;;4984483;28;20108;-75
2021/06/11 13:48:07;;;;;;;11.20;7.00;;;;;;;;;;4982352;28;20027;-77
2021/06/11 13:50:32;;;;;;;28.58;8.60;;;;;;;;;;4982367;28;20113;-76
2021/06/11 13:52:58;;;;;;;6.55;5.93;;;;;;;;;;4986243;28;20098;-74
2021/06/11 13:55:25;;;;;;;16.30;6.80;;;;;;;;;;4982997;28;20034;-74
2021/06/11 13:57:51;;;;;;;10.80;6.50;;;;;;;;;;4985424;28;20034;-74
2021/06/11 14:00:20;;;;;;;12.43;6.72;;;;;;;;;;4980457;28;20479;-73
2021/06/11 14:02:46;;;;;;;14.02;5.60;;;;;;;;;;4984664;28;20038;-75
2021/06/11 14:05:14;;;;;;;11.25;6.63;;;;;;;;;;4986305;28;20065;-75
2021/06/11 14:07:40;;;;;;;31.80;7.97;;;;;;;;;;4989661;28;20034;-75
2021/06/11 14:10:08;;;;;;;14.45;7.40;;;;;;;;;;4973914;28;20037;-74
2021/06/11 14:12:34;;;;;;;11.57;6.18;;;;;;;;;;4987229;28;20360;-75
2021/06/11 14:15:01;;;;;;;8.23;6.88;;;;;;;;;;4990608;28;20084;-75
2021/06/11 14:17:26;;;;;;;10.90;6.38;;;;;;;;;;5007089;28;20466;-74
2021/06/11 14:19:54;;;;;;;22.35;7.90;;;;;;;;;;4993713;28;20027;-74
2021/06/11 14:22:19;;;;;;;11.55;6.95;;;;;;;;;;4978848;28;20050;-74
2021/06/11 14:24:45;;;;;;;9.63;6.50;;;;;;;;;;4988752;28;20041;-75
2021/06/11 14:27:13;;;;;;;9.27;6.78;;;;;;;;;;4989035;28;20030;-75
2021/06/11 14:29:39;;;;;;;12.18;6.45;;;;;;;;;;4972841;28;20115;-77
2021/06/11 14:32:05;;;;;;;10.20;6.07;;;;;;;;;;4973917;28;20109;-75
2021/06/11 14:34:30;;;;;;;8.75;6.70;;;;;;;;;;4973975;28;20085;-75
2021/06/11 14:36:56;;;;;;;9.40;6.32;;;;;;;;;;4989197;28;20027;-74